Airfield :







YOU CAN JOIN US ON...

 
LOGIN :

Register | Disclaimer

   EN    FR    IT 

 









Legend :    VFR   Marginal VFR   IFR   Intensive IFR   Very Intensive IFR
Visi :
Ceiling :
>= 8 km
>= 3000ft
5 to 8 km
1000 to 3000 ft
1500m to 5 km
500 to 1000 ft
800 to 1500m
200 to 500 ft
< 800m
< 200 ft
Symbols :   Thunderstorms  Fog  Heavy snow  Heavy precipitations  Wind > 20 kt






- Airport Elevation : 83 ft


KBHB - Hancock County-Bar Harbor

CURRENT METAR :
  • 200256Z AUTO 35006KT 9SM -SN OVC022 M08/M11 A2979 RMK AO2 SLP090 P0000 60000 T10831106 53022 FZRANO

EXPIRED METARs :
  • 200156Z AUTO 34009KT 9SM -SN OVC022 M08/M10 A2976 RMK AO2 SNB0057 SLP079 P0000 T10831100 FZRANO
  • 200134Z AUTO 34008KT 9SM -SN BKN022 OVC030 M08/M10 A2976 RMK AO2 SNB0057 P0000 FZRANO
  • 200056Z AUTO VRB06KT 10SM OVC032 M08/M11 A2975 RMK AO2 SNB13E36 SLP076 P0000 T10831106 FZRANO

TAF KBHB
Valid from the 20 at 00:00 until the 21 at 00:00 UTC


192331Z 2000/2024 34007KT P6SM BKN035
FM200100 34008KT P6SM BKN025
FM200300 34009KT P6SM VCSH BKN020
FM201000 35011KT P6SM BKN030
FM201200 35011G19KT P6SM BKN035
FM201800 33009KT P6SM SCT050



MET'MAP, your aeronautical weather chart ! - Copyright ORBIFLY December 2007 - Disclaimer

ORBIFLY MET'MAP TEAM :

Programming & Development : Alexandra Zaïnal
Concept & original design : Baudouin d'Aumeries
Assistance for programming : Marc-Olivier Méhu
Technical & hardware support : Manuel Goepfert

Contact : metmap@orbifly.com




SOURCES & CREDITS :

   NOAA